Боровая

Карта отелей и гостиниц, располагающихся рядом с аэропортом Боровая :

Боровая
Минск
Минская область 53° 57' 41.2812" N, 27° 39' 25.56" E
Боровая
Минск
Минская область 53° 57' 41.2812" N, 27° 39' 25.56" E
Код аэродрома ИКАО
UMMB
Код аэродрома RU
УММБ
Координаты
N53.96147° E027.65710°
Превышение над уровнем моря
237
Основная полоса
13/31
Курс магнитный
126,7/306,7
Длина основной ВПП
703
Ширина основной ВПП
90
Покрытие основной ВПП
Нетвёрдое (грунт)
Освещение ВПП
Нет
Тип: 
Аэродром
Класс аэродрома: 
Принадлежность: 
ДОСААФ
Статус: 
Действующий
Сайт: 
E-mail аэродрома: 
aeroclub-minsk@mail.ru
Страна: 
Беларусь
Регион: 
Минская область
Город: 
Минск
Дополнительная информация: 
Оператор: нет данных.

Найти трансфер

С помощью этой формы Вы можете найти трансфер из аэропорта Боровая в город, аэропорт или вокзал:

Погода в аэропортах:

Авиационная погода в Нижневартовске

Регион: 
Погода METAR: 
USNN 222100Z 18001MPS 8000 -SN OVC036 M11/M13 Q1029 R21/490440 NOSIG RMK QFE767
Время наблюдения
2022-01-22T21:00:00Z
Температура C
-11.0
Точка росы
-13.0
Направление ветра
180
Скорость ветра (узлы)
2
Метео видимость
4.97
Облачность
OVC
Нижняя граница облачности (футы)
3600
Явления погоды
-SN
Условия полета
MVFR
Аэропорт подробнее: 
OVC – сплошная облачность;
-SN – слабый снег;

Авиационная погода в Уфе

Регион: 
Погода METAR: 
UWUU 222100Z VRB01MPS 4500 BR NSC M16/M17 Q1030 R14R/820542 NOSIG
Время наблюдения
2022-01-22T21:00:00Z
Температура C
-16.0
Точка росы
-17.0
Направление ветра
0
Скорость ветра (узлы)
2
Метео видимость
2.8
Облачность
CLR
Нижняя граница облачности (футы)
Явления погоды
BR
Условия полета
IFR
Аэропорт подробнее: 
CLR — нет облаков ниже 3000 м
BR – дымка (видимость от 1 до 9 км);

Авиационная погода в Угольном

Регион: 
Погода METAR: 
UHMA 222100Z 36001MPS 7000 -SN SCT037 BKN048 M21/M23 Q0990 R01/////// NOSIG RMK TDZ R01/36001MPS END R01/33001MPS QFE739/0985
Время наблюдения
2022-01-22T21:00:00Z
Температура C
-21.0
Точка росы
-23.0
Направление ветра
360
Скорость ветра (узлы)
2
Метео видимость
4.35
Облачность
SCT
BKN
Нижняя граница облачности (футы)
3700
4800
Явления погоды
-SN
Условия полета
MVFR
Аэропорт подробнее: 
SCT – разбросанная отдельная облачность; BKN – значительная (рассеянная, разорванная) облачность;
-SN – слабый снег;

Авиационная погода в Перми

Регион: 
Погода METAR: 
USPP 222100Z 13003MPS 4900 BR FU OVC014 M11/M13 Q1029 R21/090060 NOSIG RMK QFE761
Время наблюдения
2022-01-22T21:00:00Z
Температура C
-11.0
Точка росы
-13.0
Направление ветра
130
Скорость ветра (узлы)
6
Метео видимость
3.04
Облачность
OVC
Нижняя граница облачности (футы)
1400
Явления погоды
BR FU
Условия полета
MVFR
Аэропорт подробнее: 
OVC – сплошная облачность;
BR – дымка (видимость от 1 до 9 км); FU – дым (видимость менее 10 км);